Time;durP1;ratioP1;P1;durP2;ratioP2;P2;SDS_P1;SDS_P2;PMS_P1;PMS_P2;Temp;Humidity;BMP_temperature;BMP_pressure;BME280_temperature;BME280_humidity;BME280_pressure;Samples;Min_cycle;Max_cycle;Signal;HPM_P1;HPM_P2
2023/07/26 00:01:29;;;;;;;3.45;2.30;;;;;;;;;;6240935;22;20194;-91
2023/07/26 00:04:34;;;;;;;4.20;2.28;;;;;;;;;;6242788;22;20174;-90
2023/07/26 00:07:39;;;;;;;3.60;1.88;;;;;;;;;;6242943;22;20217;-90
2023/07/26 00:10:47;;;;;;;4.47;1.70;;;;;;;;;;6242774;23;20562;-91
2023/07/26 00:13:53;;;;;;;4.43;2.00;;;;;;;;;;6242183;23;20217;-90
2023/07/26 00:16:59;;;;;;;4.05;1.70;;;;;;;;;;6242019;23;20217;-91
2023/07/26 00:20:04;;;;;;;2.78;1.27;;;;;;;;;;6242252;22;20174;-92
2023/07/26 00:23:13;;;;;;;2.10;1.20;;;;;;;;;;6240064;23;20179;-89
2023/07/26 00:26:19;;;;;;;1.55;1.40;;;;;;;;;;6242146;23;20170;-90
2023/07/26 00:29:24;;;;;;;3.88;1.83;;;;;;;;;;6241080;23;20171;-92
2023/07/26 00:32:31;;;;;;;3.22;1.70;;;;;;;;;;6240226;23;20200;-91
2023/07/26 00:35:41;;;;;;;5.40;1.83;;;;;;;;;;6242454;22;20214;-92
2023/07/26 00:38:50;;;;;;;2.03;1.40;;;;;;;;;;6241544;23;20170;-91
2023/07/26 00:41:57;;;;;;;3.83;1.50;;;;;;;;;;6242649;22;20213;-91
2023/07/26 00:45:05;;;;;;;5.25;1.70;;;;;;;;;;6243196;22;20244;-91
2023/07/26 00:48:11;;;;;;;4.35;1.85;;;;;;;;;;6244415;22;20165;-89
2023/07/26 00:51:18;;;;;;;3.42;1.45;;;;;;;;;;6244530;22;20276;-90
2023/07/26 00:54:23;;;;;;;3.20;1.70;;;;;;;;;;6244076;23;20225;-91
2023/07/26 00:57:30;;;;;;;2.10;1.50;;;;;;;;;;6243753;22;20206;-91
2023/07/26 01:00:35;;;;;;;3.42;1.67;;;;;;;;;;6242204;23;20203;-91
2023/07/26 01:03:41;;;;;;;2.90;1.67;;;;;;;;;;6243079;22;20213;-89
2023/07/26 01:06:48;;;;;;;1.70;1.50;;;;;;;;;;6243421;22;20166;-89
2023/07/26 01:09:57;;;;;;;5.50;1.90;;;;;;;;;;6243336;23;20201;-91
2023/07/26 01:13:07;;;;;;;7.45;2.00;;;;;;;;;;6243942;23;20285;-90
2023/07/26 01:16:14;;;;;;;2.97;1.73;;;;;;;;;;6241623;23;20159;-92
2023/07/26 01:19:19;;;;;;;3.08;1.90;;;;;;;;;;6242208;22;20150;-90
2023/07/26 01:22:26;;;;;;;6.20;3.38;;;;;;;;;;6243107;23;20230;-91
2023/07/26 01:25:34;;;;;;;5.60;3.63;;;;;;;;;;6242475;23;20179;-90
2023/07/26 01:28:41;;;;;;;5.65;3.60;;;;;;;;;;6242110;23;20317;-90
2023/07/26 01:36:07;;;;;;;4.47;3.30;;;;;;;;;;6260560;22;20202;-89
2023/07/26 01:43:05;;;;;;;5.60;3.67;;;;;;;;;;6242097;22;20215;-91
2023/07/26 01:46:11;;;;;;;5.65;2.80;;;;;;;;;;6242699;23;20171;-90
2023/07/26 01:49:18;;;;;;;8.23;3.83;;;;;;;;;;6241215;23;20193;-89
2023/07/26 01:52:23;;;;;;;8.55;3.65;;;;;;;;;;6241404;23;20182;-91
2023/07/26 01:55:29;;;;;;;8.57;3.10;;;;;;;;;;6244327;23;20154;-90
2023/07/26 01:58:35;;;;;;;5.78;3.10;;;;;;;;;;6246486;22;20186;-89
2023/07/26 02:01:40;;;;;;;5.55;2.97;;;;;;;;;;6265010;22;20167;-92
2023/07/26 02:04:45;;;;;;;9.48;2.88;;;;;;;;;;6264406;22;20763;-91
2023/07/26 02:07:51;;;;;;;6.25;3.00;;;;;;;;;;6263998;22;20609;-91
2023/07/26 02:10:56;;;;;;;6.68;2.90;;;;;;;;;;6260968;22;20233;-92
2023/07/26 02:14:04;;;;;;;4.20;2.78;;;;;;;;;;6262028;22;20209;-91
2023/07/26 02:17:09;;;;;;;4.57;3.10;;;;;;;;;;6261793;22;20182;-90
2023/07/26 02:20:18;;;;;;;6.35;3.10;;;;;;;;;;6262472;22;20162;-93
2023/07/26 02:23:23;;;;;;;6.25;3.58;;;;;;;;;;6266270;22;20149;-89
2023/07/26 02:26:29;;;;;;;4.30;3.08;;;;;;;;;;6257338;23;20162;-91
2023/07/26 02:29:37;;;;;;;4.43;3.20;;;;;;;;;;6255913;22;20163;-90
2023/07/26 02:32:46;;;;;;;3.45;2.78;;;;;;;;;;6256549;23;20175;-91
2023/07/26 02:35:52;;;;;;;6.57;3.10;;;;;;;;;;6259355;22;20167;-91
2023/07/26 02:39:02;;;;;;;4.28;3.05;;;;;;;;;;6258931;23;20170;-92
2023/07/26 02:42:11;;;;;;;7.43;3.00;;;;;;;;;;6257109;23;20166;-91
2023/07/26 02:45:17;;;;;;;4.05;2.97;;;;;;;;;;6255201;22;20162;-90
2023/07/26 02:48:22;;;;;;;5.78;3.00;;;;;;;;;;6258542;23;20166;-92
2023/07/26 02:51:29;;;;;;;6.00;2.88;;;;;;;;;;6256696;23;20190;-93
2023/07/26 02:54:34;;;;;;;4.10;3.08;;;;;;;;;;6257503;22;20171;-91
2023/07/26 02:57:39;;;;;;;5.30;2.95;;;;;;;;;;6259040;23;20171;-92
2023/07/26 03:00:46;;;;;;;4.25;2.90;;;;;;;;;;6240060;23;20166;-92
2023/07/26 03:03:50;;;;;;;4.95;3.08;;;;;;;;;;6241240;23;20166;-92
2023/07/26 03:06:55;;;;;;;5.38;2.90;;;;;;;;;;6239453;23;20171;-92
2023/07/26 03:10:01;;;;;;;7.32;3.20;;;;;;;;;;6240573;22;20714;-91
2023/07/26 03:13:06;;;;;;;3.63;2.50;;;;;;;;;;6240839;23;20239;-92
2023/07/26 03:16:12;;;;;;;3.72;2.67;;;;;;;;;;6239863;23;20195;-92
2023/07/26 03:19:18;;;;;;;7.28;3.00;;;;;;;;;;6239353;23;20167;-92
2023/07/26 03:22:23;;;;;;;6.07;3.10;;;;;;;;;;6238933;23;20233;-94
2023/07/26 03:25:28;;;;;;;4.50;2.85;;;;;;;;;;6239614;23;20151;-93
2023/07/26 03:28:33;;;;;;;6.15;2.85;;;;;;;;;;6238448;22;20165;-91
2023/07/26 03:31:40;;;;;;;5.03;2.60;;;;;;;;;;6239758;23;20190;-91
2023/07/26 03:34:45;;;;;;;5.80;2.95;;;;;;;;;;6239194;23;20166;-89
2023/07/26 03:37:52;;;;;;;4.47;2.65;;;;;;;;;;6240164;23;20161;-91
2023/07/26 03:40:58;;;;;;;6.20;2.78;;;;;;;;;;6242153;22;20235;-90
2023/07/26 03:44:06;;;;;;;5.47;2.92;;;;;;;;;;6239521;22;20599;-90
2023/07/26 03:47:12;;;;;;;4.68;3.05;;;;;;;;;;6237921;23;20218;-91
2023/07/26 03:50:31;;;;;;;6.65;2.92;;;;;;;;;;6237890;23;20201;-88
2023/07/26 03:53:38;;;;;;;6.05;2.88;;;;;;;;;;6239660;22;20166;-90
2023/07/26 03:56:43;;;;;;;5.53;3.22;;;;;;;;;;6240155;22;20150;-91
2023/07/26 03:59:48;;;;;;;8.13;3.00;;;;;;;;;;6258376;23;20273;-92
2023/07/26 04:03:01;;;;;;;5.40;3.30;;;;;;;;;;6256792;22;20173;-92
2023/07/26 04:06:05;;;;;;;6.15;2.90;;;;;;;;;;6256761;23;20217;-91
2023/07/26 04:09:10;;;;;;;6.72;2.70;;;;;;;;;;6257403;22;20166;-90
2023/07/26 04:12:15;;;;;;;9.30;3.00;;;;;;;;;;6258107;22;20178;-93
2023/07/26 04:15:21;;;;;;;7.72;3.40;;;;;;;;;;6257585;22;20170;-93
2023/07/26 04:18:27;;;;;;;7.65;3.45;;;;;;;;;;6256386;23;20162;-92
2023/07/26 04:21:33;;;;;;;6.38;3.25;;;;;;;;;;6257593;22;20174;-90
2023/07/26 04:24:44;;;;;;;6.28;3.00;;;;;;;;;;6259974;22;20219;-91
2023/07/26 04:27:50;;;;;;;7.05;3.33;;;;;;;;;;6258938;22;20167;-91
2023/07/26 04:30:55;;;;;;;7.78;3.47;;;;;;;;;;6258992;22;20170;-93
2023/07/26 04:34:02;;;;;;;6.82;3.40;;;;;;;;;;6258051;22;20166;-92
2023/07/26 04:37:11;;;;;;;5.72;3.00;;;;;;;;;;6255737;22;20154;-90
2023/07/26 04:40:17;;;;;;;7.05;3.65;;;;;;;;;;6257723;22;20154;-91
2023/07/26 04:43:22;;;;;;;6.95;3.30;;;;;;;;;;6256699;22;20217;-92
2023/07/26 04:46:27;;;;;;;8.75;3.63;;;;;;;;;;6258772;22;20249;-92
2023/07/26 04:49:33;;;;;;;6.80;3.47;;;;;;;;;;6258097;22;20182;-89
2023/07/26 04:52:39;;;;;;;8.85;3.58;;;;;;;;;;6255473;23;20197;-91
2023/07/26 04:55:45;;;;;;;8.00;3.25;;;;;;;;;;6257320;22;20150;-92
2023/07/26 04:58:50;;;;;;;5.15;3.33;;;;;;;;;;6257618;22;20241;-92
2023/07/26 05:01:55;;;;;;;9.38;3.38;;;;;;;;;;6258750;22;20170;-92
2023/07/26 05:05:01;;;;;;;8.77;3.40;;;;;;;;;;6260016;22;20235;-92
2023/07/26 05:08:06;;;;;;;6.20;3.00;;;;;;;;;;6257406;23;20241;-93
2023/07/26 05:11:12;;;;;;;10.10;3.28;;;;;;;;;;6260203;22;20155;-90
2023/07/26 05:14:20;;;;;;;8.15;3.42;;;;;;;;;;6263618;22;20190;-88
2023/07/26 05:17:25;;;;;;;9.18;3.10;;;;;;;;;;6261568;23;20190;-92
2023/07/26 05:20:33;;;;;;;7.57;3.22;;;;;;;;;;6261819;23;20178;-89
2023/07/26 05:23:38;;;;;;;11.23;3.50;;;;;;;;;;6261310;22;20600;-94
2023/07/26 05:26:43;;;;;;;7.97;3.40;;;;;;;;;;6262858;23;20170;-90
2023/07/26 05:29:49;;;;;;;5.30;3.33;;;;;;;;;;6261789;23;20215;-92
2023/07/26 05:32:54;;;;;;;5.40;3.30;;;;;;;;;;6266129;23;20201;-89
2023/07/26 05:36:08;;;;;;;8.30;3.15;;;;;;;;;;6262201;23;20692;-88
2023/07/26 05:39:19;;;;;;;11.85;3.60;;;;;;;;;;6262306;23;20175;-91
2023/07/26 05:42:27;;;;;;;7.97;3.65;;;;;;;;;;6263473;23;20261;-90
2023/07/26 05:45:32;;;;;;;7.82;3.38;;;;;;;;;;6263122;23;20170;-91
2023/07/26 05:48:39;;;;;;;6.00;3.45;;;;;;;;;;6265262;23;20211;-91
2023/07/26 05:51:46;;;;;;;8.25;3.83;;;;;;;;;;6264956;22;20190;-91
2023/07/26 05:54:51;;;;;;;6.10;3.17;;;;;;;;;;6262120;22;20170;-91
2023/07/26 05:57:56;;;;;;;6.65;3.30;;;;;;;;;;6260935;22;20190;-93
2023/07/26 06:01:02;;;;;;;7.53;3.33;;;;;;;;;;6244747;22;20167;-91
2023/07/26 06:04:08;;;;;;;4.80;2.92;;;;;;;;;;6243807;22;20154;-92
2023/07/26 06:07:14;;;;;;;5.72;3.45;;;;;;;;;;6246373;22;20793;-89
2023/07/26 06:10:20;;;;;;;6.35;3.50;;;;;;;;;;6244598;22;20162;-90
2023/07/26 06:13:25;;;;;;;7.80;3.60;;;;;;;;;;6242696;23;20230;-92
2023/07/26 06:16:30;;;;;;;7.93;3.65;;;;;;;;;;6244968;22;20622;-91
2023/07/26 06:19:35;;;;;;;7.88;3.65;;;;;;;;;;6243640;22;20322;-92
2023/07/26 06:22:42;;;;;;;7.88;3.58;;;;;;;;;;6242102;23;20161;-95
2023/07/26 06:25:47;;;;;;;9.63;3.72;;;;;;;;;;6245314;23;20177;-92
2023/07/26 06:28:52;;;;;;;6.88;4.47;;;;;;;;;;6243873;23;20171;-90
2023/07/26 06:31:58;;;;;;;5.80;3.53;;;;;;;;;;6245968;23;20263;-91
2023/07/26 06:35:03;;;;;;;6.32;3.67;;;;;;;;;;6248327;23;20605;-90
2023/07/26 06:38:15;;;;;;;5.82;3.65;;;;;;;;;;6244272;23;20237;-93
2023/07/26 06:41:20;;;;;;;7.53;3.92;;;;;;;;;;6244460;23;20170;-92
2023/07/26 06:44:29;;;;;;;7.65;3.60;;;;;;;;;;6242534;23;20175;-89
2023/07/26 06:47:34;;;;;;;4.20;3.20;;;;;;;;;;6244923;22;20174;-91
2023/07/26 06:50:40;;;;;;;6.72;3.67;;;;;;;;;;6245028;23;20227;-90
2023/07/26 06:53:47;;;;;;;7.18;3.85;;;;;;;;;;6244470;22;20202;-91
2023/07/26 06:56:52;;;;;;;13.75;4.25;;;;;;;;;;6243724;22;20171;-91
2023/07/26 06:59:57;;;;;;;5.20;3.72;;;;;;;;;;6246312;22;20178;-92
2023/07/26 07:03:04;;;;;;;5.88;3.88;;;;;;;;;;6244986;23;20213;-92
2023/07/26 07:06:09;;;;;;;6.03;3.53;;;;;;;;;;6246543;23;20181;-91
2023/07/26 07:09:20;;;;;;;5.60;3.40;;;;;;;;;;6247116;22;20165;-93
2023/07/26 07:12:25;;;;;;;7.20;3.25;;;;;;;;;;6245360;22;20235;-94
2023/07/26 07:15:31;;;;;;;7.05;3.13;;;;;;;;;;6243411;22;20190;-92
2023/07/26 07:18:36;;;;;;;6.47;3.20;;;;;;;;;;6244257;22;20166;-93
2023/07/26 07:21:41;;;;;;;8.65;3.22;;;;;;;;;;6241870;23;20166;-93
2023/07/26 07:24:48;;;;;;;7.32;3.08;;;;;;;;;;6244119;22;20146;-93
2023/07/26 07:27:54;;;;;;;5.63;2.90;;;;;;;;;;6241818;22;20166;-91
2023/07/26 07:30:59;;;;;;;4.03;3.05;;;;;;;;;;6247348;22;20162;-94
2023/07/26 07:34:05;;;;;;;4.95;3.00;;;;;;;;;;6243648;22;20189;-90
2023/07/26 07:41:00;;;;;;;6.95;2.97;;;;;;;;;;6246808;22;20162;-91
2023/07/26 07:44:05;;;;;;;7.97;2.65;;;;;;;;;;6244107;22;20175;-92
2023/07/26 07:47:11;;;;;;;5.80;3.00;;;;;;;;;;6245478;22;20234;-94
2023/07/26 07:50:21;;;;;;;6.88;2.50;;;;;;;;;;6247014;22;20193;-91
2023/07/26 07:53:27;;;;;;;5.40;2.63;;;;;;;;;;6246047;22;20198;-91
2023/07/26 07:56:34;;;;;;;7.25;2.55;;;;;;;;;;6246171;23;20150;-92
2023/07/26 07:59:40;;;;;;;5.72;2.92;;;;;;;;;;6261557;23;20190;-92
2023/07/26 08:02:50;;;;;;;2.95;2.30;;;;;;;;;;6263615;22;20523;-88
2023/07/26 08:05:56;;;;;;;7.18;2.58;;;;;;;;;;6265587;22;20182;-92
2023/07/26 08:09:05;;;;;;;6.07;2.70;;;;;;;;;;6264799;22;20150;-91
2023/07/26 12:48:29;;;;;;;6.35;2.60;;;;;;;;;;6229940;22;20244;-89
2023/07/26 12:51:34;;;;;;;5.20;2.70;;;;;;;;;;6247318;22;20170;-87
2023/07/26 12:54:40;;;;;;;4.78;2.50;;;;;;;;;;6246143;23;20243;-92
2023/07/26 12:57:46;;;;;;;9.18;2.75;;;;;;;;;;6244710;22;20154;-89
2023/07/26 13:00:52;;;;;;;3.20;2.65;;;;;;;;;;6228627;22;20195;-89
2023/07/26 13:04:00;;;;;;;6.35;2.60;;;;;;;;;;6247549;22;20166;-91
2023/07/26 13:07:07;;;;;;;5.28;2.15;;;;;;;;;;6245384;23;20261;-89
2023/07/26 13:10:13;;;;;;;5.43;2.67;;;;;;;;;;6245789;23;20182;-90
2023/07/26 13:13:19;;;;;;;4.10;2.55;;;;;;;;;;6244672;23;20728;-88
2023/07/26 13:16:27;;;;;;;4.90;2.50;;;;;;;;;;6245234;23;20166;-90
2023/07/26 13:19:35;;;;;;;4.63;2.35;;;;;;;;;;6245999;22;20179;-91
2023/07/26 13:22:41;;;;;;;4.50;2.03;;;;;;;;;;6246344;23;20263;-91
2023/07/26 13:25:47;;;;;;;4.53;2.13;;;;;;;;;;6246426;23;20174;-92
2023/07/26 13:28:53;;;;;;;4.70;2.40;;;;;;;;;;6246224;22;20166;-89
2023/07/26 13:32:28;;;;;;;3.88;2.20;;;;;;;;;;6246566;22;20210;-88
2023/07/26 13:35:37;;;;;;;3.78;2.05;;;;;;;;;;6246552;23;20174;-91
2023/07/26 13:38:50;;;;;;;9.27;2.20;;;;;;;;;;6248385;23;20166;-90
2023/07/26 13:41:56;;;;;;;3.63;2.08;;;;;;;;;;6245793;23;20158;-88
2023/07/26 13:45:01;;;;;;;3.92;2.17;;;;;;;;;;6246357;22;20217;-88
2023/07/26 13:48:07;;;;;;;4.45;2.22;;;;;;;;;;6246282;22;20233;-90
2023/07/26 13:51:14;;;;;;;4.55;2.30;;;;;;;;;;6243312;23;20168;-90
2023/07/26 13:54:20;;;;;;;5.28;2.40;;;;;;;;;;6244959;23;20240;-91
2023/07/26 13:57:25;;;;;;;5.13;2.40;;;;;;;;;;6241350;22;20222;-89
2023/07/26 14:00:31;;;;;;;5.53;2.60;;;;;;;;;;6242407;22;20178;-90
2023/07/26 14:03:37;;;;;;;6.28;2.60;;;;;;;;;;6242402;23;20189;-89
2023/07/26 14:06:43;;;;;;;6.00;2.60;;;;;;;;;;6242049;23;20222;-89
2023/07/26 14:09:48;;;;;;;15.48;2.25;;;;;;;;;;6245178;23;20241;-89
2023/07/26 14:12:54;;;;;;;12.27;2.40;;;;;;;;;;6245360;23;20739;-89
2023/07/26 14:15:59;;;;;;;6.90;2.65;;;;;;;;;;6241087;23;20618;-88
2023/07/26 14:19:05;;;;;;;6.05;2.10;;;;;;;;;;6241504;23;20237;-88
2023/07/26 14:22:11;;;;;;;4.45;1.50;;;;;;;;;;6241366;23;20167;-89
2023/07/26 14:25:16;;;;;;;2.03;1.30;;;;;;;;;;6239321;23;20170;-89
2023/07/26 14:28:24;;;;;;;2.58;1.25;;;;;;;;;;6242631;23;20171;-90
2023/07/26 14:31:56;;;;;;;5.78;1.38;;;;;;;;;;6243990;22;20150;-92
2023/07/26 14:35:01;;;;;;;4.78;1.83;;;;;;;;;;6242170;23;20171;-91
2023/07/26 14:38:25;;;;;;;4.63;1.88;;;;;;;;;;6243735;23;20614;-91
2023/07/26 14:41:32;;;;;;;3.67;1.80;;;;;;;;;;6242447;22;20178;-90
2023/07/26 14:44:38;;;;;;;2.92;1.67;;;;;;;;;;6240603;22;20167;-88
2023/07/26 14:47:43;;;;;;;3.05;1.30;;;;;;;;;;6242894;23;20266;-89
2023/07/26 14:50:48;;;;;;;4.00;1.65;;;;;;;;;;6243787;23;20170;-88
2023/07/26 14:53:54;;;;;;;4.70;1.20;;;;;;;;;;6241526;23;20213;-90
2023/07/26 14:57:00;;;;;;;2.00;1.30;;;;;;;;;;6240484;22;20175;-88
2023/07/26 15:00:08;;;;;;;3.80;1.30;;;;;;;;;;6243017;22;20181;-88
2023/07/26 15:03:14;;;;;;;3.53;1.30;;;;;;;;;;6242907;22;20167;-90
2023/07/26 15:06:20;;;;;;;2.67;1.30;;;;;;;;;;6243913;23;20174;-89
2023/07/26 15:09:26;;;;;;;1.92;1.10;;;;;;;;;;6243113;23;20167;-87
2023/07/26 15:12:34;;;;;;;3.90;1.30;;;;;;;;;;6241657;22;20218;-89
2023/07/26 15:15:41;;;;;;;2.85;1.20;;;;;;;;;;6239774;22;20171;-88
2023/07/26 15:18:47;;;;;;;5.85;1.30;;;;;;;;;;6241919;23;20170;-88
2023/07/26 15:21:53;;;;;;;2.85;1.05;;;;;;;;;;6239913;23;20166;-89
2023/07/26 15:24:59;;;;;;;3.13;1.00;;;;;;;;;;6240507;23;20162;-87
2023/07/26 15:28:06;;;;;;;2.78;1.20;;;;;;;;;;6239405;23;20150;-89
2023/07/26 15:31:11;;;;;;;4.60;1.40;;;;;;;;;;6240973;23;20173;-90
2023/07/26 15:34:16;;;;;;;10.50;5.25;;;;;;;;;;6242098;23;20630;-87
2023/07/26 15:41:40;;;;;;;1.38;0.70;;;;;;;;;;6258307;22;20186;-87
2023/07/26 15:44:47;;;;;;;1.23;0.80;;;;;;;;;;6239715;22;20166;-87
2023/07/26 15:47:56;;;;;;;1.83;1.00;;;;;;;;;;6239619;23;20186;-90
2023/07/26 15:51:01;;;;;;;1.45;1.13;;;;;;;;;;6237700;23;20302;-87
2023/07/26 15:54:06;;;;;;;2.28;1.20;;;;;;;;;;6237409;22;20193;-91
2023/07/26 15:57:12;;;;;;;2.90;1.35;;;;;;;;;;6240077;22;20161;-88
2023/07/26 16:00:24;;;;;;;4.53;1.35;;;;;;;;;;6242301;22;20249;-91
2023/07/26 16:56:19;;;;;;;3.03;1.92;;;;;;;;;;6243772;22;20202;-89
2023/07/26 16:59:25;;;;;;;6.10;2.90;;;;;;;;;;6243830;22;20161;-88
2023/07/26 17:02:33;;;;;;;3.38;2.38;;;;;;;;;;6243392;23;20170;-87
2023/07/26 17:05:39;;;;;;;6.18;2.47;;;;;;;;;;6241844;23;20625;-89
2023/07/26 17:08:44;;;;;;;3.83;1.92;;;;;;;;;;6238062;23;20174;-88
2023/07/26 17:11:50;;;;;;;6.68;2.63;;;;;;;;;;6238167;23;20271;-89
2023/07/26 17:14:56;;;;;;;3.50;2.17;;;;;;;;;;6240521;23;20193;-88
2023/07/26 17:18:00;;;;;;;3.35;2.20;;;;;;;;;;6242217;23;20249;-88
2023/07/26 17:21:06;;;;;;;5.47;2.60;;;;;;;;;;6240252;23;20163;-89
2023/07/26 17:24:11;;;;;;;3.22;2.38;;;;;;;;;;6237545;23;20166;-87
2023/07/26 17:27:18;;;;;;;2.92;2.10;;;;;;;;;;6241219;23;20605;-89
2023/07/26 17:30:27;;;;;;;5.95;2.10;;;;;;;;;;6239039;23;20178;-87
2023/07/26 17:33:33;;;;;;;6.00;3.22;;;;;;;;;;6242710;23;20267;-88
2023/07/26 17:36:41;;;;;;;3.15;2.20;;;;;;;;;;6241567;23;20179;-88
2023/07/26 17:39:50;;;;;;;4.30;2.35;;;;;;;;;;6241118;23;20162;-87
2023/07/26 17:43:00;;;;;;;7.40;2.60;;;;;;;;;;6241316;22;20289;-87
2023/07/26 17:46:06;;;;;;;4.93;2.40;;;;;;;;;;6239041;23;20194;-87
2023/07/26 17:49:11;;;;;;;5.57;2.15;;;;;;;;;;6240362;23;20266;-88
2023/07/26 17:52:16;;;;;;;3.65;2.03;;;;;;;;;;6257826;23;20170;-88
2023/07/26 17:55:22;;;;;;;6.28;2.67;;;;;;;;;;6240233;23;20209;-88
2023/07/26 17:58:28;;;;;;;7.18;2.80;;;;;;;;;;6243259;23;20173;-88
2023/07/26 18:01:34;;;;;;;7.18;3.63;;;;;;;;;;6242072;23;20245;-88
2023/07/26 18:04:39;;;;;;;6.47;2.72;;;;;;;;;;6246527;23;20166;-87
2023/07/26 18:07:44;;;;;;;5.60;2.75;;;;;;;;;;6241631;23;20159;-87
2023/07/26 18:10:49;;;;;;;5.03;2.83;;;;;;;;;;6242125;23;20788;-87
2023/07/26 18:13:56;;;;;;;6.00;3.13;;;;;;;;;;6243931;23;20214;-86
2023/07/26 18:17:01;;;;;;;4.50;2.80;;;;;;;;;;6246281;23;20174;-90
2023/07/26 18:20:08;;;;;;;8.57;3.58;;;;;;;;;;6245759;23;20166;-89
2023/07/26 18:23:14;;;;;;;8.27;3.40;;;;;;;;;;6247700;23;20243;-88
2023/07/26 18:26:20;;;;;;;7.13;3.30;;;;;;;;;;6246407;23;20194;-87
2023/07/26 18:29:27;;;;;;;4.75;3.05;;;;;;;;;;6245073;23;20146;-89
2023/07/26 18:32:32;;;;;;;7.75;3.38;;;;;;;;;;6243655;23;20186;-88
2023/07/26 18:35:37;;;;;;;8.77;3.90;;;;;;;;;;6245374;23;20521;-87
2023/07/26 18:38:42;;;;;;;16.05;3.40;;;;;;;;;;6245304;23;20170;-90
2023/07/26 18:41:48;;;;;;;10.35;4.50;;;;;;;;;;6245214;23;20170;-88
2023/07/26 18:44:55;;;;;;;8.00;3.92;;;;;;;;;;6243886;22;20252;-88
2023/07/26 18:48:00;;;;;;;7.35;4.20;;;;;;;;;;6243197;22;20166;-89
2023/07/26 18:51:11;;;;;;;8.13;3.80;;;;;;;;;;6246069;23;20215;-90
2023/07/26 18:54:17;;;;;;;3.75;2.60;;;;;;;;;;6247527;23;20289;-88
2023/07/26 18:57:23;;;;;;;4.60;2.63;;;;;;;;;;6244853;23;20241;-88
2023/07/26 19:01:03;;;;;;;4.07;2.78;;;;;;;;;;6243515;22;20220;-88
2023/07/26 19:04:10;;;;;;;5.60;2.28;;;;;;;;;;6245000;23;20170;-88
2023/07/26 19:07:15;;;;;;;6.70;2.10;;;;;;;;;;6242345;23;20174;-88
2023/07/26 19:10:21;;;;;;;4.63;2.60;;;;;;;;;;6243646;23;20609;-86
2023/07/26 19:13:26;;;;;;;9.10;3.00;;;;;;;;;;6242434;23;20170;-88
2023/07/26 19:16:32;;;;;;;12.65;3.13;;;;;;;;;;6241994;23;20222;-87
2023/07/26 19:19:40;;;;;;;6.32;2.67;;;;;;;;;;6242013;23;20621;-89
2023/07/26 19:22:45;;;;;;;5.78;2.58;;;;;;;;;;6242945;23;20155;-87
2023/07/26 19:25:50;;;;;;;6.22;2.53;;;;;;;;;;6242044;23;20438;-89
2023/07/26 19:28:55;;;;;;;5.53;3.03;;;;;;;;;;6242297;23;20187;-89
2023/07/26 19:32:00;;;;;;;6.30;3.15;;;;;;;;;;6241264;23;20170;-88
2023/07/26 19:35:08;;;;;;;5.75;3.00;;;;;;;;;;6244507;23;20219;-89
2023/07/26 19:38:17;;;;;;;7.60;3.78;;;;;;;;;;6243602;23;20166;-89
2023/07/26 19:41:23;;;;;;;6.22;2.88;;;;;;;;;;6242602;23;20198;-89
2023/07/26 19:44:29;;;;;;;7.95;3.22;;;;;;;;;;6241963;23;20170;-89
2023/07/26 19:47:34;;;;;;;3.97;3.05;;;;;;;;;;6244398;23;20218;-90
2023/07/26 19:50:43;;;;;;;8.25;2.83;;;;;;;;;;6243834;23;20171;-89
2023/07/26 19:53:49;;;;;;;6.13;3.13;;;;;;;;;;6242589;23;20566;-89
2023/07/26 19:56:53;;;;;;;7.32;3.13;;;;;;;;;;6253664;23;20189;-89
2023/07/26 19:59:58;;;;;;;5.72;3.17;;;;;;;;;;6257529;23;20182;-89
2023/07/26 20:03:16;;;;;;;5.68;3.10;;;;;;;;;;6260448;23;20170;-89
2023/07/26 20:06:23;;;;;;;5.78;3.17;;;;;;;;;;6257555;23;20166;-88
2023/07/26 20:09:28;;;;;;;7.25;3.08;;;;;;;;;;6262217;23;20219;-91
2023/07/26 20:12:34;;;;;;;5.75;3.10;;;;;;;;;;6259795;23;20166;-89
2023/07/26 20:15:39;;;;;;;4.85;3.38;;;;;;;;;;6258562;23;20198;-90
2023/07/26 20:18:45;;;;;;;4.85;3.08;;;;;;;;;;6257742;23;20170;-87
2023/07/26 20:21:52;;;;;;;6.63;3.35;;;;;;;;;;6258333;23;20178;-87
2023/07/26 20:24:56;;;;;;;5.80;3.55;;;;;;;;;;6258806;23;20241;-88
2023/07/26 20:28:01;;;;;;;4.45;2.50;;;;;;;;;;6260323;23;20174;-87
2023/07/26 20:31:07;;;;;;;4.97;2.60;;;;;;;;;;6259445;23;20221;-89
2023/07/26 20:34:12;;;;;;;6.70;2.75;;;;;;;;;;6257791;23;20171;-87
2023/07/26 20:37:44;;;;;;;4.85;2.88;;;;;;;;;;6257781;23;20178;-88
2023/07/26 20:40:51;;;;;;;11.23;2.67;;;;;;;;;;6258994;22;20170;-88
2023/07/26 20:43:59;;;;;;;6.47;2.75;;;;;;;;;;6260165;23;20182;-88
2023/07/26 20:47:04;;;;;;;3.33;2.38;;;;;;;;;;6259343;22;20170;-88
2023/07/26 20:50:10;;;;;;;4.78;2.60;;;;;;;;;;6258955;22;20170;-89
2023/07/26 20:53:15;;;;;;;4.68;2.30;;;;;;;;;;6259762;23;20254;-88
2023/07/26 20:56:22;;;;;;;3.95;2.38;;;;;;;;;;6258221;22;20336;-88
2023/07/26 20:59:27;;;;;;;3.85;2.53;;;;;;;;;;6257836;23;20181;-87
2023/07/26 21:02:32;;;;;;;4.75;2.40;;;;;;;;;;6258506;22;20328;-90
2023/07/26 21:05:44;;;;;;;6.30;2.47;;;;;;;;;;6264215;22;20186;-87
2023/07/26 21:09:02;;;;;;;2.70;2.13;;;;;;;;;;6259494;22;20170;-88
2023/07/26 21:12:09;;;;;;;6.95;2.45;;;;;;;;;;6261521;22;20201;-88
2023/07/26 21:15:15;;;;;;;4.43;2.50;;;;;;;;;;6260774;22;20178;-90
2023/07/26 21:18:23;;;;;;;5.45;2.20;;;;;;;;;;6264793;22;20657;-90
2023/07/26 21:21:29;;;;;;;4.38;2.20;;;;;;;;;;6263690;22;20213;-90
2023/07/26 21:24:39;;;;;;;3.88;2.40;;;;;;;;;;6266008;22;20182;-92
2023/07/26 21:27:49;;;;;;;3.97;2.58;;;;;;;;;;6262945;22;20162;-90
2023/07/26 21:35:09;;;;;;;4.10;1.98;;;;;;;;;;6263883;22;20190;-90
2023/07/26 21:38:32;;;;;;;3.35;2.30;;;;;;;;;;6261474;23;20163;-91
2023/07/26 21:41:40;;;;;;;3.13;2.22;;;;;;;;;;6261111;22;20167;-90
2023/07/26 21:44:49;;;;;;;4.43;2.20;;;;;;;;;;6267494;22;20223;-93
2023/07/26 21:47:56;;;;;;;3.03;1.90;;;;;;;;;;6264806;22;20210;-90
2023/07/26 21:51:03;;;;;;;3.42;1.90;;;;;;;;;;6263798;22;20167;-90
2023/07/26 21:54:09;;;;;;;4.50;2.05;;;;;;;;;;6264135;22;20166;-91
2023/07/26 21:57:16;;;;;;;5.28;2.10;;;;;;;;;;6265374;22;20244;-92
2023/07/26 22:05:08;;;;;;;4.05;2.15;;;;;;;;;;6266008;22;20261;-91
2023/07/26 22:08:17;;;;;;;11.77;2.25;;;;;;;;;;6262566;22;20213;-91
2023/07/26 22:11:23;;;;;;;5.15;2.00;;;;;;;;;;6263843;23;20198;-91
2023/07/26 22:14:28;;;;;;;2.70;1.70;;;;;;;;;;6262108;22;20154;-92
2023/07/26 22:17:34;;;;;;;5.50;1.83;;;;;;;;;;6268239;22;20147;-87
2023/07/26 22:20:40;;;;;;;2.63;1.98;;;;;;;;;;6266707;22;20171;-91
2023/07/26 22:23:47;;;;;;;3.17;1.75;;;;;;;;;;6264117;23;20182;-90
2023/07/26 22:26:52;;;;;;;3.00;2.05;;;;;;;;;;6264559;22;20194;-92
2023/07/26 22:29:57;;;;;;;4.50;1.83;;;;;;;;;;6262528;22;20162;-93
2023/07/26 22:33:03;;;;;;;5.68;1.83;;;;;;;;;;6262735;22;20170;-94
2023/07/26 22:36:09;;;;;;;2.53;2.08;;;;;;;;;;6263959;22;20193;-92
2023/07/26 22:43:05;;;;;;;4.35;2.35;;;;;;;;;;6262421;23;20163;-93
2023/07/26 22:46:10;;;;;;;3.05;2.10;;;;;;;;;;6263281;22;20158;-91
2023/07/26 22:49:16;;;;;;;2.85;2.10;;;;;;;;;;6265219;22;20208;-90
2023/07/26 22:52:21;;;;;;;5.75;2.30;;;;;;;;;;6262633;22;20167;-91
2023/07/26 22:55:26;;;;;;;5.65;2.30;;;;;;;;;;6261957;22;20284;-90
2023/07/26 22:58:33;;;;;;;5.63;2.40;;;;;;;;;;6243861;23;20190;-91
2023/07/26 23:05:55;;;;;;;4.43;2.20;;;;;;;;;;6260483;22;20159;-92
2023/07/26 23:09:01;;;;;;;5.90;2.63;;;;;;;;;;6242151;23;20210;-91
2023/07/26 23:12:06;;;;;;;4.10;2.40;;;;;;;;;;6241642;22;20170;-89
2023/07/26 23:15:13;;;;;;;6.00;2.95;;;;;;;;;;6241349;22;20195;-91
2023/07/26 23:18:18;;;;;;;3.80;2.70;;;;;;;;;;6241836;23;20335;-91
2023/07/26 23:21:23;;;;;;;5.53;2.58;;;;;;;;;;6241969;23;20604;-93
2023/07/26 23:24:29;;;;;;;3.83;2.45;;;;;;;;;;6240528;23;20178;-91
2023/07/26 23:27:34;;;;;;;5.70;2.40;;;;;;;;;;6242907;22;20190;-94
2023/07/26 23:30:45;;;;;;;4.28;2.50;;;;;;;;;;6242706;22;20190;-91
2023/07/26 23:33:52;;;;;;;3.60;2.30;;;;;;;;;;6242759;23;20194;-92
2023/07/26 23:41:15;;;;;;;6.47;3.03;;;;;;;;;;6258903;23;20223;-91
2023/07/26 23:44:20;;;;;;;3.67;2.40;;;;;;;;;;6239791;23;20239;-90
2023/07/26 23:47:27;;;;;;;5.95;2.80;;;;;;;;;;6241998;23;20165;-91
2023/07/26 23:50:33;;;;;;;4.13;2.22;;;;;;;;;;6241864;22;20162;-90
2023/07/26 23:53:38;;;;;;;4.57;2.80;;;;;;;;;;6242175;22;20162;-91
2023/07/26 23:56:43;;;;;;;6.13;2.72;;;;;;;;;;6254777;23;20209;-92
2023/07/26 23:59:48;;;;;;;12.40;3.10;;;;;;;;;;6259199;22;20163;-90
